Log in

NYSE:GELGenesis Energy Institutional Ownership

$6.67
-0.34 (-4.85 %)
(As of 07/31/2020 04:00 PM ET)
Add
Compare
Today's Range
$6.52
Now: $6.67
$7.18
50-Day Range
$6.04
MA: $7.25
$9.18
52-Week Range
$2.58
Now: $6.67
$23.65
Volume1.02 million shs
Average Volume953,528 shs
Market Capitalization$817.61 million
P/E Ratio27.79
Dividend Yield9.00%
Beta2.61

Institutional Ownership

Institutional Ownership Changes (13F Filings) for Genesis Energy (NYSE:GEL)

Institutional Ownership Percentage: 67.01%

Institutional Buying and Selling by Quarter


Genesis Energy (NYSE GEL) Institutional Buying and Selling

Reporting DateHedge FundShares HeldMarket Value% of PortfolioQuarterly Change in SharesOwnership in Company
7/31/2020Texas Yale Capital Corp.57,450$0.42M0.0%-26.6%0.047%
7/31/2020UBS Group AG904,179$6.53M0.0%-26.4%0.738%
7/29/2020Pacer Advisors Inc.5,583$40K0.0%N/A0.005%
7/29/2020GWM Advisors LLC11,555$83K0.0%-21.1%0.009%
7/28/2020Vident Investment Advisory LLC71,658$0.52M0.0%+20.1%0.058%
7/27/2020MAI Capital Management111,581$0.81M0.0%+6.6%0.091%
7/27/2020Sumitomo Mitsui Trust Holdings Inc.91,000$0.66M0.0%+145.9%0.074%
7/23/2020Creative Planning10,957$79K0.0%-22.4%0.009%
7/23/2020XTX Markets LLC10,306$74K0.3%N/A0.008%
7/22/2020First Trust Advisors LP778,895$5.62M0.0%+140.2%0.635%
7/20/2020SG Americas Securities LLC1,735,221$12.53M0.1%+3,769.5%1.416%
7/17/2020Vident Investment Advisory LLC71,658$0.52M0.0%+20.1%0.058%
7/17/2020Raymond James Financial Services Advisors Inc.246,572$1.78M0.0%-7.0%0.201%
7/16/2020Horrell Capital Management Inc.22,000$0.16M0.1%-13.7%0.018%
7/15/2020Chickasaw Capital Management LLC7,833,983$56.56M2.9%-7.7%6.391%
6/16/2020Royal Bank of Canada53,171$0.21M0.0%-29.2%0.043%
6/2/2020Guggenheim Capital LLC18,558$73K0.0%+14.9%0.015%
5/26/2020Morgan Stanley3,619,901$14.19M0.0%+105.3%2.953%
5/26/2020UMB Bank N A MO14,000$55K0.0%-10.9%0.011%
5/22/2020Clearbridge Investments LLC5,649,426$22.15M0.0%-41.5%4.609%
5/21/2020HighTower Advisors LLC99,855$0.39M0.0%-44.8%0.081%
5/18/2020Advisor Group Holdings Inc.9,920$27K0.0%N/A0.008%
5/15/2020CNH Partners LLC41,175$0.16M0.0%+52.5%0.034%
5/15/2020Jane Street Group LLC70,975$0.28M0.0%+413.5%0.058%
5/15/2020Invesco Ltd.19,111,672$74.92M0.0%+9.0%15.591%
5/15/2020Morgan Stanley3,619,901$14.19M0.0%+105.3%2.953%
5/15/2020Harvest Fund Advisors LLC848,343$3.33M0.1%N/A0.692%
5/15/2020Cohen & Steers Inc.133,819$0.53M0.0%-20.2%0.109%
5/14/2020Wells Fargo & Company MN172,424$0.68M0.0%-23.6%0.141%
5/14/2020Infrastructure Capital Advisors LLC495,766$1.94M1.9%-16.8%0.404%
5/14/2020ELCO Management Co. LLC65,215$0.26M0.3%-55.4%0.053%
5/14/2020Tortoise Capital Advisors L.L.C.1,889,835$7.41M0.1%-57.2%1.542%
5/14/2020Commonwealth of Pennsylvania Public School Empls Retrmt SYS232,021$0.91M0.0%-63.6%0.189%
5/14/2020Pinnacle Holdings LLC261,945$1.03M0.6%+166.0%0.214%
5/13/2020BNP Paribas Arbitrage SA9,773$38K0.0%-49.4%0.008%
5/12/2020Vident Investment Advisory LLC59,645$0.23M0.0%N/A0.049%
5/12/2020Dividend Assets Capital LLC55,247$0.22M0.1%-10.2%0.045%
5/12/2020American Financial Group Inc.20,000$78K0.0%+25.0%0.016%
5/12/2020Rockefeller Capital Management L.P.10,275$40K0.0%+24.2%0.008%
5/12/2020JPMorgan Chase & Co.4,640,528$18.19M0.0%+117.1%3.786%
5/12/2020Parkwood LLC10,982$43K0.0%N/A0.009%
5/8/2020RR Advisors LLC3,634,000$14.25M6.2%+11.5%2.965%
5/8/2020PNC Financial Services Group Inc.17,400$68K0.0%-19.3%0.014%
5/6/2020First Trust Advisors LP324,305$1.27M0.0%-6.0%0.265%
5/6/2020Davidson Trust Co.10,164$39K0.0%N/A0.008%
5/6/2020Russell Investments Group Ltd.298,169$1.17M0.0%-3.6%0.243%
5/6/2020Alps Advisors Inc.14,052,475$55.09M0.9%+7.4%11.464%
5/5/2020Teacher Retirement System of Texas30,119$0.12M0.0%-16.8%0.025%
5/5/2020Creative Planning14,111$55K0.0%-86.4%0.012%
5/4/2020Cadence Capital Management LLC381,690$1.50M0.3%+12.8%0.311%
5/1/2020BlackRock Inc.1,274,153$5M0.0%-19.7%1.039%
5/1/2020UBS Group AG1,228,904$4.82M0.0%-29.4%1.003%
4/29/2020Summit Financial Wealth Advisors LLC11,613$48K0.0%N/A0.009%
4/27/2020Sumitomo Mitsui Trust Holdings Inc.37,000$0.15M0.0%-17.8%0.030%
4/23/2020Horrell Capital Management Inc.25,500$100K0.1%+155.0%0.021%
4/23/2020Argent Advisors Inc.44,402$0.17M0.2%+158.3%0.036%
4/21/2020Raymond James & Associates90,494$0.36M0.0%-32.4%0.074%
4/21/2020Raymond James Financial Services Advisors Inc.265,262$1.04M0.0%-1.9%0.216%
4/16/2020MAI Capital Management104,698$0.41M0.0%-34.0%0.085%
4/6/2020Chickasaw Capital Management LLC8,487,341$33.27M2.4%-4.2%6.924%
2/26/2020Sunbelt Securities Inc.4,000$20.48M0.1%N/A0.003%
2/21/2020Tortoise Capital Advisors L.L.C.4,416,522$90.45M0.6%+15.6%3.603%
2/19/2020Tortoise Capital Advisors L.L.C.4,416,522$90.45M0.6%+15.6%3.603%
2/17/2020Ladenburg Thalmann Financial Services Inc.4,610$95K0.0%+93.3%0.004%
2/14/2020Advisors Asset Management Inc.98,884$2.03M0.0%+5.9%0.081%
2/14/2020Captrust Financial Advisors12,599$0.27M0.0%-51.5%0.010%
2/14/2020Jane Street Group LLC13,823$0.28M0.0%-86.2%0.011%
2/14/2020First Republic Investment Management Inc.39,603$0.81M0.0%-5.3%0.032%
2/14/2020Bank of America Corp DE549,825$11.26M0.0%+2.1%0.449%
2/14/2020Goldman Sachs Group Inc.3,756,382$76.93M0.0%+77.7%3.064%
2/14/2020Guggenheim Capital LLC16,152$0.33M0.0%N/A0.013%
2/14/2020UBS Group AG1,741,133$35.66M0.0%-18.2%1.420%
2/14/2020Cohen & Steers Inc.167,718$3.44M0.0%-6.1%0.137%
2/13/2020Van ECK Associates Corp7,210$0.15M0.0%-73.5%0.006%
2/13/2020Infrastructure Capital Advisors LLC595,537$12.20M2.2%-8.4%0.486%
2/13/2020Americana Partners LLC3,290$67K0.0%N/A0.003%
2/13/2020Stifel Financial Corp20,355$0.42M0.0%+10.8%0.017%
2/12/2020Credit Suisse AG57,899$1.19M0.0%-80.3%0.047%
2/12/2020Vestcor Investment Management Corp6,072$0.12M0.0%N/A0.005%
2/12/2020Raymond James & Associates133,876$2.74M0.0%-15.8%0.109%
2/12/2020Raymond James Financial Services Advisors Inc.270,318$5.54M0.0%-1.6%0.221%
2/11/2020Commonwealth of Pennsylvania Public School Empls Retrmt SYS636,705$13.04M0.2%+2.2%0.519%
2/11/2020Envestnet Asset Management Inc.16,122$0.33M0.0%-33.2%0.013%
2/10/2020Barclays PLC31,428$0.64M0.0%-60.1%0.026%
2/10/2020Pacer Advisors Inc.2,948$60K0.0%N/A0.002%
2/10/2020BerganKDV Wealth Management LLC1,700$35K0.0%N/A0.001%
2/7/2020Rockefeller Capital Management L.P.8,275$0.17M0.0%N/A0.007%
2/7/2020Alps Advisors Inc.13,084,546$267.97M2.1%-0.6%10.674%
2/7/2020SNS Financial Group LLC11,700$0.24M0.0%+9.3%0.010%
2/7/2020Tower Research Capital LLC TRC1,956$40K0.0%-55.9%0.002%
2/7/2020Oppenheimer Asset Management Inc.3,832$78K0.0%-56.6%0.003%
2/6/2020Arrow Investment Advisors LLC20,320$0.42M0.2%+3.3%0.017%
2/6/2020Novare Capital Management LLC98,099$2.01M0.3%+60.3%0.080%
2/6/2020Teacher Retirement System of Texas36,200$0.74M0.0%-77.0%0.030%
2/5/2020Signaturefd LLC5,975$0.12M0.0%-18.4%0.005%
2/4/2020Virtu Financial LLC16,938$0.35M0.0%-36.7%0.014%
2/3/2020First Trust Advisors LP345,092$7.07M0.0%+19.0%0.282%
2/3/2020Fort Washington Investment Advisors Inc. OH36,360$0.75M0.0%-67.2%0.030%
2/3/2020MAI Capital Management158,543$3.25M0.1%-23.0%0.129%
1/31/2020UMB Bank N A MO15,715$0.32M0.0%+12.3%0.013%
(Data available from 1/1/2016 forward)
This page was last updated on 8/3/2020 by MarketBeat.com Staff

Enter your email address below to receive a concise daily summary of analysts' upgrades, downgrades and new coverage with MarketBeat.com's FREE daily email newsletter.